Time;durP1;ratioP1;P1;durP2;ratioP2;P2;SDS_P1;SDS_P2;PMS_P1;PMS_P2;Temp;Humidity;BMP_temperature;BMP_pressure;BME280_temperature;BME280_humidity;BME280_pressure;Samples;Min_cycle;Max_cycle;Signal;HPM_P1;HPM_P2
2023/12/04 00:00:16;;;;;;;37.53;17.67;;;2.10;99.90;;;;;;5093114;28;20557;-83
2023/12/04 00:02:42;;;;;;;35.17;18.03;;;2.00;99.90;;;;;;5075042;28;20028;-83
2023/12/04 00:05:08;;;;;;;38.07;17.37;;;2.10;99.90;;;;;;5092806;28;20034;-83
2023/12/04 00:07:34;;;;;;;40.93;19.00;;;2.10;99.90;;;;;;5093085;28;20036;-83
2023/12/04 00:09:59;;;;;;;36.30;18.63;;;2.00;99.90;;;;;;5092798;28;20035;-83
2023/12/04 00:12:26;;;;;;;36.30;17.90;;;2.10;99.90;;;;;;5093032;28;20408;-82
2023/12/04 00:14:52;;;;;;;38.47;19.37;;;2.10;99.90;;;;;;5092728;28;20032;-83
2023/12/04 00:17:18;;;;;;;33.20;17.30;;;2.10;99.90;;;;;;5092836;28;20032;-82
2023/12/04 00:19:44;;;;;;;32.53;16.43;;;2.10;99.90;;;;;;5092824;28;20028;-83
2023/12/04 00:22:09;;;;;;;36.80;17.90;;;2.10;99.90;;;;;;5091583;28;20476;-82
2023/12/04 00:24:35;;;;;;;37.87;18.83;;;2.10;99.90;;;;;;5092614;28;20035;-82
2023/12/04 00:27:01;;;;;;;34.93;17.20;;;2.10;99.90;;;;;;5092878;28;20437;-83
2023/12/04 00:29:27;;;;;;;36.10;18.50;;;2.10;99.90;;;;;;5074423;28;20036;-83
2023/12/04 00:31:52;;;;;;;34.50;17.60;;;2.10;99.90;;;;;;5092840;28;20112;-82
2023/12/04 00:34:18;;;;;;;36.57;17.27;;;2.00;99.90;;;;;;5074557;28;20025;-83
2023/12/04 00:36:43;;;;;;;31.03;16.50;;;2.10;99.90;;;;;;5091179;28;20070;-83
2023/12/04 00:39:09;;;;;;;37.80;19.00;;;2.10;99.90;;;;;;5093054;28;20502;-83
2023/12/04 00:41:35;;;;;;;32.07;16.43;;;2.10;99.90;;;;;;5092465;28;20034;-83
2023/12/04 00:44:00;;;;;;;36.30;17.70;;;2.10;99.90;;;;;;5091184;28;20384;-83
2023/12/04 00:46:26;;;;;;;34.27;17.50;;;2.10;99.90;;;;;;5074375;28;20034;-83
2023/12/04 00:48:51;;;;;;;34.07;16.73;;;2.20;99.90;;;;;;5092486;28;20044;-83
2023/12/04 00:51:17;;;;;;;35.93;17.30;;;2.10;99.90;;;;;;5094121;28;20064;-83
2023/12/04 00:53:43;;;;;;;36.57;17.47;;;2.20;99.90;;;;;;5094841;28;20036;-83
2023/12/04 00:56:09;;;;;;;34.37;17.07;;;2.20;99.90;;;;;;5094792;28;20385;-83
2023/12/04 00:58:35;;;;;;;35.13;16.50;;;2.10;99.90;;;;;;5095703;28;20036;-83
2023/12/04 01:01:00;;;;;;;34.30;17.40;;;2.20;99.90;;;;;;5078142;28;20028;-82
2023/12/04 01:03:26;;;;;;;30.37;15.37;;;2.10;99.90;;;;;;5095592;28;20036;-83
2023/12/04 01:05:52;;;;;;;36.93;16.47;;;2.20;99.90;;;;;;5096369;28;20403;-83
2023/12/04 01:08:18;;;;;;;34.13;17.37;;;2.20;99.90;;;;;;5096161;28;20115;-82
2023/12/04 01:10:43;;;;;;;30.47;16.03;;;2.10;99.90;;;;;;5096440;28;20040;-82
2023/12/04 01:13:09;;;;;;;35.50;17.33;;;2.10;99.90;;;;;;5095971;28;20090;-82
2023/12/04 01:15:35;;;;;;;34.53;17.27;;;2.20;99.90;;;;;;5095962;28;20514;-83
2023/12/04 01:18:00;;;;;;;35.67;18.47;;;2.10;99.90;;;;;;5095533;28;20093;-83
2023/12/04 01:20:26;;;;;;;34.57;17.23;;;2.20;99.90;;;;;;5095624;28;20036;-83
2023/12/04 01:22:52;;;;;;;37.03;17.43;;;2.20;99.90;;;;;;5095771;28;20036;-83
2023/12/04 01:25:18;;;;;;;37.63;18.27;;;2.10;99.90;;;;;;5096049;28;20069;-83
2023/12/04 01:27:44;;;;;;;31.47;16.50;;;2.10;99.90;;;;;;5095396;28;20081;-83
2023/12/04 01:30:10;;;;;;;35.20;16.33;;;2.20;99.90;;;;;;5095856;28;20028;-83
2023/12/04 01:32:36;;;;;;;33.83;16.90;;;2.10;99.90;;;;;;5095473;28;20043;-83
2023/12/04 01:35:02;;;;;;;34.87;16.97;;;2.20;99.90;;;;;;5095091;28;20028;-82
2023/12/04 01:37:28;;;;;;;30.43;15.27;;;2.20;99.90;;;;;;5095423;28;20032;-83
2023/12/04 01:39:53;;;;;;;30.67;14.30;;;2.20;99.90;;;;;;5095424;28;20085;-83
2023/12/04 01:42:19;;;;;;;30.07;14.57;;;2.20;99.90;;;;;;5095200;28;20036;-83
2023/12/04 01:44:45;;;;;;;32.83;15.77;;;2.20;99.90;;;;;;5095084;28;20497;-83
2023/12/04 01:47:11;;;;;;;26.63;14.63;;;2.20;99.90;;;;;;5095035;28;20032;-83
2023/12/04 01:49:37;;;;;;;29.47;14.23;;;2.20;99.90;;;;;;5095009;28;20089;-83
2023/12/04 01:52:04;;;;;;;27.90;13.50;;;2.20;99.90;;;;;;5095442;28;20035;-83
2023/12/04 01:54:31;;;;;;;28.20;14.27;;;2.20;99.90;;;;;;5094852;28;20035;-83
2023/12/04 01:56:57;;;;;;;28.17;14.60;;;2.30;99.90;;;;;;5095230;28;20487;-83
2023/12/04 01:59:23;;;;;;;30.20;15.00;;;2.20;99.90;;;;;;5094947;28;20052;-82
2023/12/04 02:01:49;;;;;;;30.70;15.10;;;2.30;99.90;;;;;;5094239;28;20032;-82
2023/12/04 02:04:15;;;;;;;29.63;15.00;;;2.30;99.90;;;;;;5093945;28;20097;-83
2023/12/04 02:06:41;;;;;;;33.67;14.83;;;2.30;99.90;;;;;;5094861;28;20039;-82
2023/12/04 02:09:09;;;;;;;31.07;14.80;;;2.20;99.90;;;;;;5094859;28;20090;-82
2023/12/04 02:11:35;;;;;;;28.97;13.57;;;2.20;99.90;;;;;;5094537;28;20539;-82
2023/12/04 02:14:01;;;;;;;28.13;14.23;;;2.20;99.90;;;;;;5094671;28;20081;-82
2023/12/04 02:16:29;;;;;;;27.13;14.40;;;2.20;99.90;;;;;;5094676;28;20487;-82
2023/12/04 02:18:54;;;;;;;27.47;14.07;;;2.30;99.90;;;;;;5076394;28;20549;-82
2023/12/04 02:21:20;;;;;;;28.33;14.43;;;2.20;99.90;;;;;;5094873;28;20105;-83
2023/12/04 02:23:50;;;;;;;25.90;13.30;;;2.20;99.90;;;;;;5094433;28;20395;-82
2023/12/04 02:26:21;;;;;;;29.10;13.80;;;2.20;99.90;;;;;;5094821;28;20028;-82
2023/12/04 02:28:55;;;;;;;25.93;13.77;;;2.30;99.90;;;;;;5094515;28;20028;-82
2023/12/04 02:31:23;;;;;;;26.35;12.90;;;2.20;99.90;;;;;;5094438;28;20032;-82
2023/12/04 02:33:55;;;;;;;23.53;12.60;;;2.20;99.90;;;;;;5094118;28;20036;-83
2023/12/04 02:36:24;;;;;;;27.00;13.60;;;2.20;99.90;;;;;;5075852;28;20036;-84
2023/12/04 02:38:51;;;;;;;27.47;12.83;;;2.20;99.90;;;;;;5094192;28;20373;-82
2023/12/04 02:41:17;;;;;;;27.63;13.83;;;2.20;99.90;;;;;;5092600;28;20142;-82
2023/12/04 02:43:43;;;;;;;25.33;12.77;;;2.20;99.90;;;;;;5094096;28;20541;-82
2023/12/04 02:46:09;;;;;;;27.40;13.97;;;2.20;99.90;;;;;;5093821;28;20028;-82
2023/12/04 02:48:35;;;;;;;29.77;14.23;;;2.20;99.90;;;;;;5093709;28;20102;-82
2023/12/04 02:51:01;;;;;;;26.17;12.57;;;2.20;99.90;;;;;;5075851;28;20077;-82
2023/12/04 02:53:27;;;;;;;24.73;12.23;;;2.30;99.90;;;;;;5092637;28;20533;-82
2023/12/04 02:55:52;;;;;;;22.33;12.20;;;2.30;99.90;;;;;;5093585;28;20032;-82
2023/12/04 02:58:18;;;;;;;29.07;12.77;;;2.30;99.90;;;;;;5075758;28;20086;-82
2023/12/04 03:00:44;;;;;;;26.70;13.07;;;2.30;99.90;;;;;;5076188;28;20066;-82
2023/12/04 03:03:09;;;;;;;26.60;13.47;;;2.30;99.90;;;;;;5093790;28;20034;-83
2023/12/04 03:05:35;;;;;;;24.70;12.70;;;2.30;99.90;;;;;;5093487;28;20110;-82
2023/12/04 03:08:01;;;;;;;23.93;12.00;;;2.30;99.90;;;;;;5093671;28;20050;-82
2023/12/04 03:10:26;;;;;;;22.67;11.87;;;2.30;99.90;;;;;;5093645;28;20481;-82
2023/12/04 03:12:52;;;;;;;23.87;11.23;;;2.40;99.90;;;;;;5076439;28;20141;-82
2023/12/04 03:15:18;;;;;;;25.03;12.93;;;2.30;99.90;;;;;;5093317;28;20036;-82
2023/12/04 03:17:43;;;;;;;23.03;12.87;;;2.30;99.90;;;;;;5091804;28;20040;-83
2023/12/04 03:20:09;;;;;;;23.53;11.80;;;2.40;99.90;;;;;;5093530;28;20490;-83
2023/12/04 03:22:37;;;;;;;27.50;12.87;;;2.30;99.90;;;;;;5093549;28;20488;-83
2023/12/04 03:25:02;;;;;;;21.53;11.70;;;2.30;99.90;;;;;;5093422;28;20115;-83
2023/12/04 03:27:28;;;;;;;24.67;12.23;;;2.40;99.90;;;;;;5093379;28;20127;-83
2023/12/04 03:29:54;;;;;;;24.50;12.17;;;2.30;99.90;;;;;;5091834;28;20426;-83
2023/12/04 03:32:20;;;;;;;23.77;11.87;;;2.40;99.90;;;;;;5093176;28;20034;-83
2023/12/04 03:34:45;;;;;;;22.67;11.80;;;2.40;99.90;;;;;;5091946;28;20054;-83
2023/12/04 03:37:11;;;;;;;25.33;12.77;;;2.40;99.90;;;;;;5093110;28;20042;-83
2023/12/04 03:39:37;;;;;;;24.93;12.10;;;2.40;99.90;;;;;;5091803;28;20024;-83
2023/12/04 03:42:03;;;;;;;26.30;12.37;;;2.40;99.90;;;;;;5092816;28;20032;-83
2023/12/04 03:44:28;;;;;;;24.60;12.30;;;2.30;99.90;;;;;;5093086;28;20108;-83
2023/12/04 03:46:54;;;;;;;22.00;11.17;;;2.30;99.90;;;;;;5074566;28;20040;-83
2023/12/04 03:49:20;;;;;;;22.07;12.17;;;2.30;99.90;;;;;;5093161;28;20032;-83
2023/12/04 03:51:45;;;;;;;22.77;11.00;;;2.30;99.90;;;;;;5092840;28;20032;-83
2023/12/04 03:54:13;;;;;;;20.43;10.13;;;2.40;99.90;;;;;;5093116;28;20024;-83
2023/12/04 03:56:39;;;;;;;24.20;11.33;;;2.40;99.90;;;;;;5092984;28;20548;-84
2023/12/04 03:59:04;;;;;;;23.47;10.87;;;2.30;99.90;;;;;;5092794;28;20028;-83
2023/12/04 04:01:30;;;;;;;22.57;10.87;;;2.30;99.90;;;;;;5092869;28;20074;-82
2023/12/04 04:03:56;;;;;;;23.33;11.43;;;2.30;99.90;;;;;;5091720;28;20024;-82
2023/12/04 04:06:21;;;;;;;23.07;11.57;;;2.30;99.90;;;;;;5092763;28;20438;-82
2023/12/04 04:08:47;;;;;;;23.33;11.17;;;2.30;99.90;;;;;;5091556;28;20032;-82
2023/12/04 04:11:13;;;;;;;22.07;11.17;;;2.30;99.90;;;;;;5074754;28;20071;-82
2023/12/04 04:13:38;;;;;;;23.00;11.23;;;2.20;99.90;;;;;;5091758;28;20036;-83
2023/12/04 04:16:04;;;;;;;23.03;12.30;;;2.30;99.90;;;;;;5092661;28;20028;-82
2023/12/04 04:18:30;;;;;;;23.10;11.90;;;2.20;99.90;;;;;;5091597;28;20078;-83
2023/12/04 04:20:56;;;;;;;20.23;10.90;;;2.20;99.90;;;;;;5092863;28;20064;-82
2023/12/04 04:23:21;;;;;;;21.03;11.20;;;2.20;99.90;;;;;;5092405;28;20107;-82
2023/12/04 04:25:47;;;;;;;21.53;10.63;;;2.20;99.90;;;;;;5093218;28;20036;-82
2023/12/04 04:28:13;;;;;;;21.57;10.47;;;2.20;99.90;;;;;;5096579;28;20031;-82
2023/12/04 04:30:39;;;;;;;19.53;10.47;;;2.20;99.90;;;;;;5078478;28;20032;-83
2023/12/04 04:33:05;;;;;;;23.37;11.23;;;2.20;99.90;;;;;;5096750;28;20024;-83
2023/12/04 04:35:31;;;;;;;19.20;11.00;;;2.20;99.90;;;;;;5096630;28;20024;-83
2023/12/04 04:37:57;;;;;;;19.17;9.50;;;2.20;99.90;;;;;;5096470;28;20036;-82
2023/12/04 04:40:23;;;;;;;19.43;9.83;;;2.20;99.90;;;;;;5096607;28;20103;-83
2023/12/04 04:42:48;;;;;;;21.23;10.80;;;2.20;99.90;;;;;;5078007;28;20024;-82
2023/12/04 04:45:14;;;;;;;18.93;9.53;;;2.20;99.90;;;;;;5097004;28;20024;-82
2023/12/04 04:47:39;;;;;;;21.63;10.40;;;2.20;99.90;;;;;;5096889;28;20048;-82
2023/12/04 04:50:06;;;;;;;21.17;10.13;;;2.20;99.90;;;;;;5097948;28;20491;-83
2023/12/04 04:52:31;;;;;;;23.57;11.20;;;2.10;99.90;;;;;;5096844;28;20028;-82
2023/12/04 04:54:57;;;;;;;19.97;10.17;;;2.20;99.90;;;;;;5096636;28;20039;-83
2023/12/04 04:57:23;;;;;;;19.57;9.90;;;2.10;99.90;;;;;;5096473;28;20032;-83
2023/12/04 04:59:48;;;;;;;20.90;10.27;;;2.20;99.90;;;;;;5096010;28;20115;-83
2023/12/04 05:02:14;;;;;;;21.07;11.37;;;2.20;99.90;;;;;;5096307;28;20107;-82
2023/12/04 05:04:39;;;;;;;21.20;10.63;;;2.20;99.90;;;;;;5077769;28;20540;-83
2023/12/04 05:07:05;;;;;;;17.47;9.90;;;2.20;99.90;;;;;;5078055;28;20040;-82
2023/12/04 05:09:31;;;;;;;18.53;9.93;;;2.10;99.90;;;;;;5095918;28;20029;-82
2023/12/04 05:11:56;;;;;;;20.00;10.90;;;2.10;99.90;;;;;;5096053;28;20153;-83
2023/12/04 05:14:22;;;;;;;17.13;9.07;;;2.20;99.90;;;;;;5095741;28;20032;-83
2023/12/04 05:16:47;;;;;;;20.87;10.10;;;2.10;99.90;;;;;;5077555;28;20039;-82
2023/12/04 05:19:13;;;;;;;20.63;9.77;;;2.10;99.90;;;;;;5095706;28;20025;-82
2023/12/04 05:21:39;;;;;;;20.50;10.83;;;2.10;99.90;;;;;;5095434;28;20032;-82
2023/12/04 05:24:04;;;;;;;20.20;9.50;;;2.10;99.90;;;;;;5095636;28;20059;-82
2023/12/04 05:26:30;;;;;;;21.37;11.07;;;2.10;99.90;;;;;;5077492;28;20063;-83
2023/12/04 05:28:56;;;;;;;19.37;10.77;;;2.10;99.90;;;;;;5095397;28;20032;-83
2023/12/04 05:31:22;;;;;;;19.17;9.70;;;2.10;99.90;;;;;;5095854;28;20035;-83
2023/12/04 05:33:48;;;;;;;19.73;10.03;;;2.20;99.90;;;;;;5095235;28;20056;-83
2023/12/04 05:36:13;;;;;;;22.27;10.13;;;2.10;99.90;;;;;;5111113;28;20036;-81
2023/12/04 05:38:39;;;;;;;18.63;9.87;;;2.10;99.90;;;;;;5111075;28;20021;-83
2023/12/04 05:41:05;;;;;;;18.53;10.40;;;2.10;99.90;;;;;;5094950;28;20040;-83
2023/12/04 05:43:30;;;;;;;15.77;9.03;;;2.10;99.90;;;;;;5095181;28;20486;-83
2023/12/04 05:45:56;;;;;;;20.17;10.67;;;2.20;99.90;;;;;;5095459;28;20028;-85
2023/12/04 05:48:21;;;;;;;19.30;10.37;;;2.20;99.90;;;;;;5094215;28;20510;-85
2023/12/04 05:50:47;;;;;;;18.57;9.10;;;2.20;99.90;;;;;;5077476;28;20028;-84
2023/12/04 05:53:13;;;;;;;18.50;9.53;;;2.10;99.90;;;;;;5095308;28;20028;-83
2023/12/04 05:55:38;;;;;;;19.00;9.87;;;2.20;99.90;;;;;;5095400;28;20029;-84
2023/12/04 05:58:04;;;;;;;18.00;9.83;;;2.20;99.90;;;;;;5110482;28;20384;-85
2023/12/04 06:00:29;;;;;;;21.07;10.40;;;2.20;99.90;;;;;;5095020;28;20028;-83
2023/12/04 06:02:55;;;;;;;19.40;9.63;;;2.20;99.90;;;;;;5076647;28;20028;-83
2023/12/04 06:05:21;;;;;;;18.30;9.13;;;2.20;99.90;;;;;;5095006;28;20032;-83
2023/12/04 06:07:46;;;;;;;16.07;8.53;;;2.20;99.90;;;;;;5076631;28;20432;-83
2023/12/04 06:10:12;;;;;;;15.27;8.00;;;2.30;99.90;;;;;;5076724;28;20028;-83
2023/12/04 06:12:38;;;;;;;16.80;9.13;;;2.30;99.90;;;;;;5110246;28;20024;-83
2023/12/04 06:15:04;;;;;;;19.07;10.23;;;2.30;99.90;;;;;;5076610;28;20520;-83
2023/12/04 06:17:30;;;;;;;16.33;9.40;;;2.30;99.90;;;;;;5093394;28;20032;-83
2023/12/04 06:19:55;;;;;;;19.27;8.77;;;2.30;99.90;;;;;;5094596;28;20036;-83
2023/12/04 06:22:21;;;;;;;15.70;8.73;;;2.30;99.90;;;;;;5094309;28;20062;-83
2023/12/04 06:24:48;;;;;;;16.87;8.87;;;2.30;99.90;;;;;;5093994;28;20036;-83
2023/12/04 06:27:21;;;;;;;15.80;8.93;;;2.30;99.90;;;;;;5094605;28;20499;-83
2023/12/04 06:29:48;;;;;;;13.52;7.15;;;2.30;99.80;;;;;;5084981;28;20075;-83
2023/12/04 06:32:14;;;;;;;17.73;8.80;;;2.30;99.80;;;;;;5104768;28;20040;-81
2023/12/04 06:34:41;;;;;;;16.30;8.50;;;2.30;99.70;;;;;;5100633;28;20032;-81
2023/12/04 06:37:11;;;;;;;15.53;7.97;;;2.40;99.70;;;;;;5073924;28;20056;-81
2023/12/04 06:39:38;;;;;;;16.57;8.40;;;2.40;99.70;;;;;;5089208;28;20099;-81
2023/12/04 06:42:09;;;;;;;17.07;8.03;;;2.40;99.50;;;;;;5093948;28;20032;-81
2023/12/04 06:44:35;;;;;;;17.67;9.00;;;2.40;99.30;;;;;;5092197;28;20056;-81
2023/12/04 06:47:01;;;;;;;17.03;8.33;;;2.40;99.30;;;;;;5093419;28;20055;-81
2023/12/04 06:49:31;;;;;;;16.83;9.10;;;2.40;99.20;;;;;;5111800;27;20399;-81
2023/12/04 06:51:58;;;;;;;16.33;7.80;;;2.40;99.00;;;;;;5094002;28;20039;-81
2023/12/04 06:54:24;;;;;;;15.57;7.27;;;2.50;99.00;;;;;;5093391;28;20106;-81
2023/12/04 06:56:50;;;;;;;15.57;7.67;;;2.40;99.00;;;;;;5093682;28;20032;-81
2023/12/04 06:59:15;;;;;;;15.47;7.87;;;2.40;98.60;;;;;;5075333;28;20025;-81
2023/12/04 07:01:41;;;;;;;15.90;8.17;;;2.40;98.70;;;;;;5092158;28;20118;-82
2023/12/04 07:04:09;;;;;;;16.23;8.87;;;2.40;98.50;;;;;;5075115;28;20024;-82
2023/12/04 07:06:39;;;;;;;16.23;8.03;;;2.40;98.10;;;;;;5092260;28;20028;-82
2023/12/04 07:09:07;;;;;;;16.00;7.90;;;2.40;98.10;;;;;;5091958;28;20399;-82
2023/12/04 07:11:33;;;;;;;13.27;7.33;;;2.40;98.00;;;;;;5093519;28;20097;-82
2023/12/04 07:13:58;;;;;;;16.87;8.70;;;2.40;97.70;;;;;;5091861;28;20511;-82
2023/12/04 07:16:24;;;;;;;14.53;7.50;;;2.40;97.80;;;;;;5098479;28;20478;-82
2023/12/04 07:18:50;;;;;;;17.27;7.87;;;2.50;97.70;;;;;;5107922;28;20035;-82
2023/12/04 07:21:16;;;;;;;15.20;7.77;;;2.40;97.40;;;;;;5112047;28;20376;-82
2023/12/04 07:23:41;;;;;;;13.63;7.53;;;2.40;97.50;;;;;;5091019;28;20177;-82
2023/12/04 07:26:07;;;;;;;15.00;8.23;;;2.40;97.10;;;;;;5093238;28;20028;-82
2023/12/04 07:28:33;;;;;;;16.10;7.67;;;2.40;97.00;;;;;;5092985;28;20047;-80
2023/12/04 07:31:01;;;;;;;15.97;7.97;;;2.40;97.20;;;;;;5091652;28;20514;-83
2023/12/04 07:33:27;;;;;;;13.60;6.97;;;2.40;97.20;;;;;;5093100;28;20039;-82
2023/12/04 07:35:52;;;;;;;15.10;8.00;;;2.40;97.20;;;;;;5092668;28;20495;-83
2023/12/04 07:38:18;;;;;;;16.10;7.50;;;2.50;97.30;;;;;;5092829;28;20139;-83
2023/12/04 07:40:45;;;;;;;13.37;7.40;;;2.50;97.20;;;;;;5108351;28;20032;-83
2023/12/04 07:43:10;;;;;;;13.20;6.93;;;2.50;97.20;;;;;;5108799;28;20020;-82
2023/12/04 07:45:36;;;;;;;14.27;7.03;;;2.50;97.30;;;;;;5114606;27;20024;-82
2023/12/04 07:48:03;;;;;;;12.93;6.60;;;2.50;97.30;;;;;;5111972;28;20513;-83
2023/12/04 07:50:29;;;;;;;14.40;7.07;;;2.50;97.50;;;;;;5113211;28;20089;-82
2023/12/04 07:52:55;;;;;;;12.53;6.60;;;2.50;97.50;;;;;;5111473;28;20020;-81
2023/12/04 07:55:20;;;;;;;11.63;6.23;;;2.50;97.60;;;;;;5113308;28;20024;-82
2023/12/04 07:57:47;;;;;;;13.27;6.33;;;2.60;97.70;;;;;;5113576;28;20035;-82
2023/12/04 08:00:14;;;;;;;11.83;6.50;;;2.60;97.70;;;;;;5111695;28;20387;-81
2023/12/04 08:02:39;;;;;;;12.03;6.13;;;2.60;97.70;;;;;;5116057;28;20616;-81
2023/12/04 08:05:06;;;;;;;14.00;6.77;;;2.60;97.80;;;;;;5116014;28;20140;-81
2023/12/04 08:07:32;;;;;;;12.30;6.60;;;2.60;97.30;;;;;;5115916;28;20470;-81
2023/12/04 08:09:57;;;;;;;13.17;6.80;;;2.70;97.40;;;;;;5116169;28;20028;-81
2023/12/04 08:12:23;;;;;;;14.27;6.57;;;2.70;97.50;;;;;;5116210;28;20032;-82
2023/12/04 08:14:49;;;;;;;13.17;6.00;;;2.70;97.50;;;;;;5117073;28;20028;-81
2023/12/04 08:17:14;;;;;;;13.40;6.73;;;2.70;97.50;;;;;;5106890;28;20036;-81
2023/12/04 08:19:41;;;;;;;11.30;5.90;;;2.80;97.50;;;;;;5098745;28;20027;-80
2023/12/04 08:22:07;;;;;;;12.30;6.80;;;2.80;97.30;;;;;;5115574;28;20032;-80
2023/12/04 08:24:32;;;;;;;14.90;7.53;;;2.80;96.70;;;;;;5117252;28;20096;-81
2023/12/04 08:26:58;;;;;;;14.00;7.20;;;2.90;96.80;;;;;;5117038;28;20128;-81
2023/12/04 08:29:24;;;;;;;13.73;6.33;;;2.90;96.60;;;;;;5116269;28;20035;-81
2023/12/04 08:31:50;;;;;;;12.43;6.10;;;2.90;96.70;;;;;;5117371;28;20356;-81
2023/12/04 08:34:16;;;;;;;14.23;6.80;;;2.90;96.50;;;;;;5115691;28;20490;-81
2023/12/04 08:36:41;;;;;;;14.30;7.03;;;2.90;96.50;;;;;;5116782;28;20043;-81
2023/12/04 08:39:07;;;;;;;12.90;6.40;;;2.90;96.50;;;;;;5116985;28;20034;-81
2023/12/04 08:41:32;;;;;;;13.30;6.73;;;2.90;96.40;;;;;;5116670;28;20027;-81
2023/12/04 08:43:58;;;;;;;11.27;5.27;;;3.00;96.40;;;;;;5116834;28;20395;-81
2023/12/04 08:46:24;;;;;;;11.67;5.97;;;3.00;96.50;;;;;;5115581;28;20490;-81
2023/12/04 08:48:49;;;;;;;13.53;6.17;;;3.00;96.40;;;;;;5116543;28;20059;-81
2023/12/04 08:51:18;;;;;;;11.27;6.23;;;3.00;96.50;;;;;;5115094;28;20038;-81
2023/12/04 08:53:44;;;;;;;13.00;6.30;;;3.00;96.60;;;;;;5116750;28;20506;-81
2023/12/04 08:56:10;;;;;;;12.43;5.80;;;3.00;96.60;;;;;;5115183;28;20028;-81
2023/12/04 08:58:36;;;;;;;13.23;6.40;;;3.10;96.70;;;;;;5116521;28;20028;-81
2023/12/04 09:01:03;;;;;;;11.67;5.63;;;3.10;96.70;;;;;;5115220;28;20024;-81
2023/12/04 09:03:31;;;;;;;13.37;6.20;;;3.10;96.70;;;;;;5115215;28;20043;-81
2023/12/04 09:05:57;;;;;;;12.83;6.40;;;3.10;96.70;;;;;;5116013;28;20020;-81
2023/12/04 09:08:25;;;;;;;12.47;6.47;;;3.20;96.70;;;;;;5115045;28;20510;-81
2023/12/04 09:10:51;;;;;;;10.10;5.60;;;3.20;96.60;;;;;;5114908;28;20031;-81
2023/12/04 09:13:16;;;;;;;11.03;5.70;;;3.20;96.60;;;;;;5115655;28;20146;-81
2023/12/04 09:15:42;;;;;;;12.63;6.37;;;3.20;96.60;;;;;;5114726;28;20028;-81
2023/12/04 09:18:08;;;;;;;11.27;5.57;;;3.20;96.50;;;;;;5116154;28;20525;-81
2023/12/04 09:20:34;;;;;;;11.80;5.73;;;3.20;96.40;;;;;;5114663;28;20142;-81
2023/12/04 09:22:59;;;;;;;12.93;6.53;;;3.30;96.40;;;;;;5114705;28;20042;-81
2023/12/04 09:25:25;;;;;;;13.47;6.67;;;3.30;96.20;;;;;;5114743;28;20032;-81
2023/12/04 09:27:51;;;;;;;11.50;6.33;;;3.30;96.20;;;;;;5114727;28;20043;-81
2023/12/04 09:30:17;;;;;;;13.33;6.13;;;3.40;96.30;;;;;;5115664;28;20028;-81
2023/12/04 09:32:43;;;;;;;11.50;5.47;;;3.40;96.20;;;;;;5114733;28;20115;-81
2023/12/04 09:35:09;;;;;;;12.63;6.37;;;3.40;96.10;;;;;;5114133;28;20065;-81
2023/12/04 09:37:34;;;;;;;14.00;6.70;;;3.50;96.00;;;;;;5114242;28;20047;-81
2023/12/04 09:40:00;;;;;;;10.90;5.83;;;3.50;95.90;;;;;;5115821;28;20035;-80
2023/12/04 09:42:26;;;;;;;12.77;6.87;;;3.50;95.90;;;;;;5114194;28;20081;-81
2023/12/04 09:44:52;;;;;;;11.57;6.20;;;3.50;95.90;;;;;;5115455;28;20368;-81
2023/12/04 09:47:18;;;;;;;12.93;6.43;;;3.50;95.80;;;;;;5115437;28;20032;-82
2023/12/04 09:49:48;;;;;;;11.73;5.80;;;3.60;95.70;;;;;;5115429;28;20028;-81
2023/12/04 09:52:14;;;;;;;12.50;6.13;;;3.70;95.70;;;;;;5115488;28;20130;-80
2023/12/04 09:54:41;;;;;;;11.30;5.47;;;3.70;95.70;;;;;;5115461;28;20108;-80
2023/12/04 09:57:06;;;;;;;11.83;6.10;;;3.70;95.60;;;;;;5114088;28;20027;-81
2023/12/04 09:59:33;;;;;;;12.97;6.33;;;3.80;95.50;;;;;;5115181;28;20030;-80
2023/12/04 10:01:59;;;;;;;13.53;6.77;;;3.80;95.30;;;;;;5114245;28;20035;-80
2023/12/04 10:04:25;;;;;;;13.37;6.73;;;3.80;95.50;;;;;;5113746;28;20036;-80
2023/12/04 10:06:54;;;;;;;14.40;6.40;;;3.90;95.20;;;;;;5114013;28;20578;-80
2023/12/04 10:09:22;;;;;;;12.67;6.23;;;3.90;95.10;;;;;;5114076;28;20034;-80
2023/12/04 10:11:50;;;;;;;13.43;7.83;;;4.00;95.10;;;;;;5113644;28;20463;-80
2023/12/04 10:14:20;;;;;;;12.87;7.10;;;4.00;94.90;;;;;;5113928;28;20491;-80
2023/12/04 10:16:47;;;;;;;14.50;7.87;;;4.00;94.80;;;;;;5113776;28;20053;-80
2023/12/04 10:19:18;;;;;;;12.53;7.27;;;4.10;94.40;;;;;;5114049;28;20015;-80
2023/12/04 10:21:49;;;;;;;14.97;6.90;;;4.10;94.20;;;;;;5113502;28;20028;-80
2023/12/04 10:24:27;;;;;;;13.03;7.30;;;4.10;94.40;;;;;;5112751;28;20028;-80
2023/12/04 10:26:53;;;;;;;14.17;7.27;;;4.10;94.50;;;;;;5114703;28;20097;-81
2023/12/04 10:29:19;;;;;;;13.93;7.53;;;4.20;94.00;;;;;;5113282;28;20098;-80
2023/12/04 10:31:44;;;;;;;12.43;6.97;;;4.20;93.30;;;;;;5113379;28;20034;-80
2023/12/04 10:34:10;;;;;;;12.63;6.50;;;4.20;93.10;;;;;;5114661;28;20036;-80
2023/12/04 10:36:37;;;;;;;15.87;8.90;;;4.20;93.00;;;;;;5114459;28;20063;-80
2023/12/04 10:39:05;;;;;;;15.87;7.37;;;4.30;92.30;;;;;;5113137;28;20027;-80
2023/12/04 10:41:31;;;;;;;13.67;6.97;;;4.30;92.70;;;;;;5114220;28;20059;-80
2023/12/04 10:43:58;;;;;;;16.27;8.03;;;4.30;91.90;;;;;;5106619;28;20032;-80
2023/12/04 10:46:28;;;;;;;15.57;7.57;;;4.30;91.50;;;;;;5075378;28;20032;-81
2023/12/04 10:48:54;;;;;;;14.37;8.07;;;4.20;91.20;;;;;;5075764;28;20043;-80
2023/12/04 10:51:23;;;;;;;13.87;8.10;;;4.20;91.10;;;;;;5094000;28;20024;-81
2023/12/04 10:53:49;;;;;;;14.63;8.30;;;4.20;91.40;;;;;;5094041;28;20028;-81
2023/12/04 10:56:20;;;;;;;15.33;7.97;;;4.20;91.40;;;;;;5092506;28;20510;-80
2023/12/04 10:58:50;;;;;;;14.20;8.10;;;4.20;91.50;;;;;;5093608;28;20480;-80
2023/12/04 11:01:19;;;;;;;15.17;8.07;;;4.30;91.40;;;;;;5092123;28;20024;-80
2023/12/04 11:03:48;;;;;;;13.90;7.30;;;4.30;91.50;;;;;;5092514;28;20036;-81
2023/12/04 11:06:16;;;;;;;13.33;7.33;;;4.30;91.10;;;;;;5092267;28;20070;-81
2023/12/04 11:08:43;;;;;;;14.20;7.27;;;4.30;91.40;;;;;;5092428;28;20020;-80
2023/12/04 11:11:14;;;;;;;16.53;9.27;;;4.40;91.10;;;;;;5092030;28;20093;-81
2023/12/04 11:13:41;;;;;;;15.03;8.13;;;4.30;91.10;;;;;;5093798;28;20028;-81
2023/12/04 11:16:19;;;;;;;14.23;7.87;;;4.40;90.90;;;;;;5075098;28;20077;-79
2023/12/04 11:19:01;;;;;;;13.90;7.43;;;4.40;90.90;;;;;;5075915;28;20051;-81
2023/12/04 11:21:29;;;;;;;16.20;9.13;;;4.30;90.90;;;;;;5093866;28;20036;-80
2023/12/04 11:23:55;;;;;;;15.47;8.47;;;4.40;90.50;;;;;;5093163;28;20036;-81
2023/12/04 11:26:22;;;;;;;15.43;7.97;;;4.40;90.70;;;;;;5091995;28;20036;-80
2023/12/04 11:28:48;;;;;;;15.17;8.27;;;4.40;91.00;;;;;;5092134;28;20101;-81
2023/12/04 11:31:15;;;;;;;15.37;7.53;;;4.40;91.00;;;;;;5091876;28;20393;-81
2023/12/04 11:33:41;;;;;;;15.57;8.10;;;4.40;91.10;;;;;;5093250;28;20403;-81
2023/12/04 11:36:12;;;;;;;13.53;7.80;;;4.50;91.10;;;;;;5075036;28;20035;-80
2023/12/04 11:38:42;;;;;;;14.43;7.93;;;4.40;90.80;;;;;;5075253;28;20442;-80
2023/12/04 11:41:16;;;;;;;13.23;7.13;;;4.50;90.90;;;;;;5074874;28;20051;-80
2023/12/04 11:43:43;;;;;;;15.48;8.38;;;4.50;91.00;;;;;;5091621;28;20024;-81
2023/12/04 11:46:09;;;;;;;16.03;7.47;;;4.50;91.00;;;;;;5091762;28;20043;-81
2023/12/04 11:48:38;;;;;;;13.17;7.40;;;4.50;90.90;;;;;;5092800;28;20522;-81
2023/12/04 11:51:07;;;;;;;14.83;7.60;;;4.40;90.90;;;;;;5071895;28;20040;-80
2023/12/04 11:53:37;;;;;;;11.77;6.73;;;4.50;91.00;;;;;;5091465;28;20492;-81
2023/12/04 11:56:12;;;;;;;14.37;7.27;;;4.50;90.80;;;;;;5091756;28;20081;-81
2023/12/04 11:58:44;;;;;;;15.87;7.90;;;4.50;90.90;;;;;;5092664;28;20119;-81
2023/12/04 12:01:10;;;;;;;15.07;7.87;;;4.50;90.50;;;;;;5093135;28;20101;-81
2023/12/04 12:03:36;;;;;;;12.87;7.10;;;4.40;90.20;;;;;;5093032;28;20064;-80
2023/12/04 12:06:03;;;;;;;12.63;6.57;;;4.40;90.70;;;;;;5075175;28;20092;-80
2023/12/04 12:08:29;;;;;;;13.53;7.30;;;4.40;90.50;;;;;;5093110;28;20032;-81
2023/12/04 12:10:56;;;;;;;14.83;7.10;;;4.40;90.10;;;;;;5092642;28;20373;-80
2023/12/04 12:13:23;;;;;;;16.73;8.33;;;4.40;90.20;;;;;;5092678;28;20024;-81
2023/12/04 12:15:50;;;;;;;15.17;7.70;;;4.40;90.10;;;;;;5091545;28;20480;-80
2023/12/04 12:18:16;;;;;;;12.03;6.27;;;4.40;90.10;;;;;;5074509;28;20099;-80
2023/12/04 12:20:42;;;;;;;14.67;7.73;;;4.40;90.00;;;;;;5091394;28;20086;-80
2023/12/04 12:23:08;;;;;;;13.43;7.33;;;4.30;89.80;;;;;;5091105;28;20028;-79
2023/12/04 12:25:35;;;;;;;15.43;7.57;;;4.30;89.30;;;;;;5092723;28;20032;-80
2023/12/04 12:28:05;;;;;;;14.03;7.37;;;4.30;88.70;;;;;;5091076;28;20123;-80
2023/12/04 12:30:30;;;;;;;15.03;7.73;;;4.30;88.70;;;;;;5074217;28;20502;-79
2023/12/04 12:32:57;;;;;;;14.03;7.20;;;4.30;88.70;;;;;;5091300;28;20020;-79
2023/12/04 12:35:23;;;;;;;15.60;7.83;;;4.30;88.50;;;;;;5092681;28;20024;-79
2023/12/04 12:37:53;;;;;;;14.90;7.17;;;4.30;89.00;;;;;;5074209;28;20040;-80